Mattoon, Illinois
Current Conditions -  °F | °C
As of 5:53 PM on Saturday 25 Oct 2014 (Local Time) from KMTO Reporting Station
Clear Clear  
Wind Chill: 18°   Ceiling: Unl
Heat Index: 18°   Visibility: 10mi
Dew Point:   Wind: 8mph
Humidity: 54%   Direction: 290°WNW
Pressure: 29.98"   Gusts: NA
Location:  39.48°N, 88.37°W
Report Text: KMTO 252253Z AUTO 29007KT 10SM CLR 18/09 A2998 RMK AO2 SLP149 T01830089
Loading
Personal Weather Stations






























Interactive Weather Map
Tropical Storm Tracking
New forecast layout! Learn more

10-Day Weather Forecast

Advertisements
Track Severe Weather on mobile